createdAt,value
2022-08-11T00:02:36.379Z,89.87
2022-08-11T00:05:09.090Z,91.17
2022-08-11T00:07:54.787Z,88.25
2022-08-11T00:10:23.460Z,88.94
2022-08-11T00:12:52.038Z,89.39
2022-08-11T00:15:19.315Z,89.11
2022-08-11T00:17:47.143Z,90.45
2022-08-11T00:20:16.961Z,91.11
2022-08-11T00:22:46.660Z,90.37
2022-08-11T00:27:47.254Z,90.19
2022-08-11T00:30:15.688Z,91.20
2022-08-11T00:32:44.445Z,90.89
2022-08-11T00:35:55.474Z,90.43
2022-08-11T00:38:01.541Z,91.18
2022-08-11T00:40:38.805Z,91.47
2022-08-11T00:43:10.607Z,90.02
2022-08-11T00:45:50.571Z,90.39
2022-08-11T00:48:36.602Z,89.96
2022-08-11T00:53:53.495Z,90.46
2022-08-11T00:56:39.650Z,89.12
2022-08-11T00:59:34.990Z,87.33
2022-08-11T01:02:15.604Z,87.76
2022-08-11T01:05:12.732Z,87.21
2022-08-11T01:08:05.662Z,87.54
2022-08-11T01:10:45.095Z,87.74
2022-08-11T01:13:12.522Z,86.46
2022-08-11T01:15:58.841Z,89.33
2022-08-11T01:18:45.892Z,91.42
2022-08-11T01:21:14.270Z,90.66
2022-08-11T01:23:56.718Z,91.88
2022-08-11T01:26:39.157Z,91.11
2022-08-11T01:29:24.720Z,91.36
2022-08-11T01:31:58.235Z,92.56
2022-08-11T01:34:28.243Z,92.77
2022-08-11T01:37:00.578Z,92.37
2022-08-11T01:39:30.693Z,93.97
2022-08-11T01:42:19.996Z,93.12
2022-08-11T01:44:47.252Z,93.87
2022-08-11T01:47:53.263Z,93.62
2022-08-11T01:50:21.642Z,93.80
2022-08-11T01:53:04.375Z,93.86
2022-08-11T01:55:47.926Z,93.78
2022-08-11T01:58:44.028Z,94.68
2022-08-11T02:01:23.474Z,94.12
2022-08-11T02:03:51.446Z,92.59
2022-08-11T02:06:54.523Z,91.32
2022-08-11T02:09:22.358Z,90.71
2022-08-11T02:11:52.801Z,91.63
2022-08-11T02:14:31.971Z,91.36
2022-08-11T02:17:05.890Z,90.73
2022-08-11T02:19:54.772Z,90.15
2022-08-11T02:22:49.184Z,91.70
2022-08-11T02:25:36.386Z,92.69
2022-08-11T02:28:21.856Z,91.81
2022-08-11T02:31:22.526Z,91.82
2022-08-11T02:34:23.081Z,92.31
2022-08-11T02:37:04.113Z,92.53
2022-08-11T02:39:41.953Z,93.35
2022-08-11T02:42:42.224Z,93.31
2022-08-11T02:45:09.993Z,94.97
2022-08-11T02:47:40.116Z,95.42
2022-08-11T02:50:19.712Z,96.61
2022-08-11T02:52:50.309Z,95.96
2022-08-11T02:55:44.441Z,97.05
2022-08-11T02:58:27.203Z,95.81
2022-08-11T03:01:11.707Z,95.74
2022-08-11T03:03:47.187Z,94.16
2022-08-11T03:06:21.029Z,92.23
2022-08-11T03:09:08.816Z,93.18
2022-08-11T03:12:00.889Z,94.63
2022-08-11T03:14:58.838Z,91.80
2022-08-11T03:17:32.720Z,91.55
2022-08-11T03:20:12.253Z,92.11
2022-08-11T03:22:51.506Z,91.42
2022-08-11T03:25:32.182Z,90.32
2022-08-11T03:28:10.306Z,92.03
2022-08-11T03:30:48.861Z,92.70
2022-08-11T03:33:54.622Z,93.73
2022-08-11T03:37:17.150Z,89.87
2022-08-11T03:39:55.441Z,90.53
2022-08-11T03:42:29.114Z,91.31
2022-08-11T03:45:15.213Z,89.81
2022-08-11T03:48:01.284Z,90.15
2022-08-11T03:50:49.722Z,89.07
2022-08-11T03:53:38.229Z,90.22
2022-08-11T03:56:24.275Z,91.29
2022-08-11T03:59:01.059Z,92.32
2022-08-11T04:01:29.816Z,89.16
2022-08-11T04:04:09.739Z,88.23
2022-08-11T04:06:37.345Z,87.69
2022-08-11T04:09:20.507Z,89.01
2022-08-11T04:11:47.879Z,90.05
2022-08-11T04:14:54.730Z,89.82
2022-08-11T04:17:41.481Z,88.42
2022-08-11T04:20:19.047Z,89.30
2022-08-11T04:23:03.412Z,92.44
2022-08-11T04:25:58.556Z,92.27
2022-08-11T04:28:32.183Z,92.75
2022-08-11T04:31:44.088Z,92.53
2022-08-11T04:34:08.517Z,93.07
2022-08-11T04:37:12.892Z,91.98
2022-08-11T04:39:59.030Z,91.49
2022-08-11T04:43:11.577Z,90.57
2022-08-11T04:45:38.745Z,89.38
2022-08-11T04:48:34.291Z,90.59
2022-08-11T04:51:26.307Z,88.47
2022-08-11T04:54:20.875Z,87.72
2022-08-11T04:57:11.000Z,88.82
2022-08-11T05:00:16.059Z,87.10
2022-08-11T05:03:18.917Z,86.75
2022-08-11T05:05:56.587Z,89.89
2022-08-11T05:08:26.730Z,89.20
2022-08-11T05:11:12.970Z,88.85
2022-08-11T05:14:04.740Z,87.36
2022-08-11T05:17:23.313Z,88.45
2022-08-11T05:20:23.021Z,90.58
2022-08-11T05:23:10.504Z,89.68
2022-08-11T05:26:44.857Z,88.96
2022-08-11T05:29:19.882Z,90.33
2022-08-11T05:32:14.852Z,90.97
2022-08-11T05:34:54.618Z,94.33
2022-08-11T05:37:33.257Z,93.96
2022-08-11T05:40:25.875Z,93.97
2022-08-11T05:43:15.749Z,92.57
2022-08-11T05:46:03.821Z,92.28
2022-08-11T05:48:55.031Z,92.85
2022-08-11T05:51:54.885Z,92.96
2022-08-11T05:54:42.297Z,91.21
2022-08-11T05:57:10.603Z,90.30
2022-08-11T06:00:01.875Z,92.13
2022-08-11T06:02:33.759Z,91.76
2022-08-11T06:05:02.315Z,91.15
2022-08-11T06:07:48.666Z,91.33
2022-08-11T06:10:31.079Z,91.28
2022-08-11T06:12:58.659Z,91.57
2022-08-11T06:15:26.769Z,92.74
2022-08-11T06:17:55.809Z,93.24
2022-08-11T06:20:25.075Z,90.90
2022-08-11T06:22:57.765Z,89.91
2022-08-11T06:25:31.311Z,87.27
2022-08-11T06:28:00.079Z,85.53
2022-08-11T06:30:42.736Z,85.92
2022-08-11T06:33:15.375Z,85.31
2022-08-11T06:36:02.972Z,83.78
2022-08-11T06:38:47.193Z,82.43
2022-08-11T06:41:30.951Z,82.74
2022-08-11T06:44:13.997Z,77.20
2022-08-11T06:46:42.858Z,80.50
2022-08-11T06:49:30.604Z,75.82
2022-08-11T06:52:01.766Z,73.77
2022-08-11T06:54:35.234Z,75.88
2022-08-11T06:57:30.910Z,74.83
2022-08-11T07:00:18.484Z,76.06
2022-08-11T07:02:51.968Z,75.10
2022-08-11T07:05:38.973Z,76.32
2022-08-11T07:08:43.841Z,76.29
2022-08-11T07:11:33.107Z,75.67
2022-08-11T07:14:20.884Z,72.15
2022-08-11T07:16:49.634Z,72.19
2022-08-11T07:19:41.117Z,72.24
2022-08-11T07:22:29.514Z,73.42
2022-08-11T07:25:19.944Z,70.56
2022-08-11T07:28:08.877Z,70.06
2022-08-11T07:30:40.062Z,62.57
2022-08-11T07:33:08.677Z,64.54
2022-08-11T07:35:44.006Z,61.25
2022-08-11T07:38:22.695Z,59.52
2022-08-11T07:40:52.965Z,61.10
2022-08-11T07:43:20.698Z,59.98
2022-08-11T07:46:06.721Z,61.95
2022-08-11T07:48:53.428Z,61.72
2022-08-11T07:51:39.235Z,60.99
2022-08-11T07:54:16.303Z,62.47
2022-08-11T07:56:54.260Z,57.69
2022-08-11T08:00:00.674Z,59.67
2022-08-11T08:02:58.632Z,61.25
2022-08-11T08:05:45.243Z,61.26
2022-08-11T08:08:33.280Z,58.49
2022-08-11T08:11:22.523Z,59.67
2022-08-11T08:14:14.058Z,56.80
2022-08-11T08:17:00.756Z,58.78
2022-08-11T08:19:28.653Z,59.99
2022-08-11T08:22:11.168Z,54.28
2022-08-11T08:24:44.303Z,55.45
2022-08-11T08:27:14.471Z,54.50
2022-08-11T08:30:02.499Z,51.23
2022-08-11T08:32:32.075Z,56.21
2022-08-11T08:35:00.140Z,51.57
2022-08-11T08:37:45.849Z,53.61
2022-08-11T08:40:15.496Z,50.81
2022-08-11T08:42:46.821Z,52.99
2022-08-11T08:45:18.694Z,51.05
2022-08-11T08:47:52.608Z,51.03
2022-08-11T08:50:27.675Z,51.25
2022-08-11T08:52:58.445Z,50.39
2022-08-11T08:55:27.475Z,52.81
2022-08-11T08:57:56.098Z,47.74
2022-08-11T09:00:23.964Z,48.71
2022-08-11T09:02:52.056Z,49.12
2022-08-11T09:05:20.040Z,50.29
2022-08-11T09:07:51.360Z,48.93
2022-08-11T09:10:20.478Z,50.31
2022-08-11T09:12:48.644Z,51.21
2022-08-11T09:15:19.333Z,46.48
2022-08-11T09:17:53.794Z,46.01
2022-08-11T09:20:22.673Z,46.03
2022-08-11T09:24:07.442Z,46.87
2022-08-11T09:26:19.592Z,46.53
2022-08-11T09:28:47.617Z,46.10
2022-08-11T09:31:15.513Z,42.50
2022-08-11T09:33:44.018Z,42.67
2022-08-11T09:36:31.639Z,47.83
2022-08-11T09:39:18.900Z,46.19
2022-08-11T09:42:01.909Z,42.96
2022-08-11T09:44:50.161Z,42.74
2022-08-11T09:47:28.538Z,42.61
2022-08-11T09:50:16.433Z,42.12
2022-08-11T10:05:49.749Z,41.88
2022-08-11T10:08:20.520Z,45.18
2022-08-11T10:10:48.666Z,43.34
2022-08-11T10:14:31.496Z,42.69
2022-08-11T10:16:15.305Z,43.80
2022-08-11T10:18:54.582Z,41.40
2022-08-11T10:21:28.719Z,41.29
2022-08-11T10:24:16.005Z,40.20
2022-08-11T10:26:54.751Z,39.76
2022-08-11T10:29:45.150Z,38.99
2022-08-11T10:32:57.931Z,41.55
2022-08-11T10:35:30.918Z,41.71
2022-08-11T10:38:08.253Z,41.98
2022-08-11T10:40:40.818Z,40.38
2022-08-11T10:43:15.751Z,38.40
2022-08-11T10:46:29.574Z,41.10
2022-08-11T10:48:59.405Z,40.41
2022-08-11T10:51:51.202Z,40.78
2022-08-11T10:54:40.678Z,41.94
2022-08-11T10:57:27.870Z,41.98
2022-08-11T10:59:57.124Z,40.61
2022-08-11T11:02:27.387Z,40.79
2022-08-11T11:05:13.323Z,37.59
2022-08-11T11:07:55.333Z,38.95
2022-08-11T11:10:22.973Z,37.35
2022-08-11T11:13:12.094Z,39.34
2022-08-11T11:15:59.783Z,39.70
2022-08-11T11:18:36.220Z,38.37
2022-08-11T11:21:06.738Z,38.87
2022-08-11T11:23:40.970Z,41.92
2022-08-11T11:26:14.802Z,40.19
2022-08-11T11:29:01.319Z,41.46
2022-08-11T11:31:31.684Z,40.36
2022-08-11T11:34:24.027Z,41.75
2022-08-11T11:36:55.519Z,39.02
2022-08-11T11:39:27.834Z,39.72
2022-08-11T11:41:57.145Z,40.93
2022-08-11T11:44:25.936Z,42.01
2022-08-11T11:46:54.065Z,41.85
2022-08-11T11:51:53.114Z,43.96
2022-08-11T11:54:24.723Z,44.69
2022-08-11T11:56:53.760Z,44.22
2022-08-11T11:59:41.228Z,46.87
2022-08-11T12:02:12.168Z,43.92
2022-08-11T12:04:44.716Z,44.49
2022-08-11T12:07:30.738Z,44.01
2022-08-11T12:09:59.144Z,42.78
2022-08-11T12:12:45.422Z,43.07
2022-08-11T12:15:13.643Z,39.89
2022-08-11T12:17:41.123Z,41.67
2022-08-11T12:20:33.551Z,41.38
2022-08-11T12:23:15.676Z,43.38
2022-08-11T12:26:26.387Z,40.17
2022-08-11T12:28:51.550Z,38.63
2022-08-11T12:31:23.179Z,40.53
2022-08-11T12:33:51.113Z,38.75
2022-08-11T12:36:19.780Z,38.62
2022-08-11T12:38:51.456Z,38.74
2022-08-11T12:41:40.196Z,38.18
2022-08-11T12:44:44.922Z,38.78
2022-08-11T12:47:16.789Z,39.20
2022-08-11T12:50:22.776Z,38.09
2022-08-11T12:52:54.321Z,37.04
2022-08-11T12:55:42.979Z,35.86
2022-08-11T12:58:30.894Z,36.51
2022-08-11T13:01:16.904Z,39.25
2022-08-11T13:04:03.320Z,39.71
2022-08-11T13:06:30.990Z,40.59
2022-08-11T13:09:01.414Z,39.60
2022-08-11T13:11:56.633Z,39.19
2022-08-11T13:14:26.346Z,40.21
2022-08-11T13:17:12.595Z,40.52
2022-08-11T13:19:47.439Z,37.81
2022-08-11T13:22:18.920Z,36.08
2022-08-11T13:24:49.168Z,38.17
2022-08-11T13:27:19.166Z,36.52
2022-08-11T13:29:48.189Z,37.98
2022-08-11T13:32:17.179Z,38.61
2022-08-11T13:34:45.901Z,40.66
2022-08-11T13:37:14.850Z,37.74
2022-08-11T13:39:47.686Z,39.85
2022-08-11T13:42:16.694Z,41.41
2022-08-11T13:44:44.435Z,40.49
2022-08-11T13:47:13.754Z,41.09
2022-08-11T13:49:42.914Z,42.13
2022-08-11T13:52:15.095Z,41.97
2022-08-11T13:54:43.560Z,42.42
2022-08-11T13:58:05.993Z,43.01
2022-08-11T14:00:23.350Z,43.64
2022-08-11T14:02:56.192Z,41.43
2022-08-11T14:05:26.610Z,43.29
2022-08-11T14:07:57.479Z,42.33
2022-08-11T14:10:29.191Z,42.27
2022-08-11T14:13:25.570Z,39.99
2022-08-11T14:15:54.177Z,39.93
2022-08-11T14:18:22.764Z,41.18
2022-08-11T14:21:13.405Z,40.63
2022-08-11T14:23:42.746Z,39.82
2022-08-11T14:26:23.789Z,38.81
2022-08-11T14:28:55.465Z,37.45
2022-08-11T14:31:24.463Z,38.62
2022-08-11T14:34:00.006Z,38.97
2022-08-11T14:36:39.339Z,37.72
2022-08-11T14:39:13.191Z,37.10
2022-08-11T14:42:10.036Z,37.58
2022-08-11T14:45:04.636Z,38.09
2022-08-11T14:47:35.391Z,39.53
2022-08-11T14:50:10.370Z,40.22
2022-08-11T14:52:43.606Z,39.82
2022-08-11T14:55:30.872Z,39.22
2022-08-11T14:57:59.049Z,37.10
2022-08-11T15:00:26.986Z,38.95
2022-08-11T15:03:11.392Z,37.72
2022-08-11T15:05:52.432Z,35.39
2022-08-11T15:08:48.447Z,36.04
2022-08-11T15:11:36.225Z,38.32
2022-08-11T15:14:05.240Z,38.94
2022-08-11T15:16:51.530Z,38.14
2022-08-11T15:19:21.530Z,37.51
2022-08-11T15:22:08.949Z,39.04
2022-08-11T15:24:36.958Z,39.22
2022-08-11T15:27:30.535Z,40.91
2022-08-11T15:30:32.859Z,38.15
2022-08-11T15:33:30.763Z,40.16
2022-08-11T15:36:16.650Z,39.22
2022-08-11T15:38:47.766Z,39.86
2022-08-11T15:41:36.278Z,39.37
2022-08-11T15:44:44.479Z,39.78
2022-08-11T15:47:15.160Z,38.49
2022-08-11T15:50:11.779Z,41.61
2022-08-11T15:52:34.969Z,42.56
2022-08-11T15:55:08.539Z,35.88
2022-08-11T15:57:55.908Z,35.50
2022-08-11T16:00:42.992Z,35.80
2022-08-11T16:04:06.094Z,34.14
2022-08-11T16:06:18.488Z,32.52
2022-08-11T16:08:46.218Z,33.29
2022-08-11T16:11:14.069Z,33.65
2022-08-11T16:13:42.299Z,32.44
2022-08-11T16:16:17.367Z,32.71
2022-08-11T16:18:54.134Z,34.02
2022-08-11T16:21:33.526Z,32.42
2022-08-11T16:24:06.931Z,32.50
2022-08-11T16:27:07.523Z,33.75
2022-08-11T16:29:25.547Z,33.72
2022-08-11T16:32:14.435Z,35.98
2022-08-11T16:35:00.934Z,38.70
2022-08-11T16:37:47.311Z,38.57
2022-08-11T16:40:16.245Z,39.42
2022-08-11T16:43:10.171Z,42.43
2022-08-11T16:45:58.871Z,43.81
2022-08-11T16:48:36.060Z,44.07
2022-08-11T16:51:10.787Z,45.61
2022-08-11T16:54:00.053Z,48.47
2022-08-11T16:56:48.344Z,49.99
2022-08-11T16:59:19.109Z,48.79
2022-08-11T17:01:49.056Z,50.18
2022-08-11T17:04:42.001Z,51.21
2022-08-11T17:07:42.301Z,51.58
2022-08-11T17:10:50.950Z,53.12
2022-08-11T17:13:21.460Z,53.47
2022-08-11T17:16:09.525Z,52.98
2022-08-11T17:18:45.862Z,53.23
2022-08-11T17:21:19.037Z,54.41
2022-08-11T17:23:50.534Z,53.40
2022-08-11T17:26:20.260Z,51.87
2022-08-11T17:28:51.557Z,52.84
2022-08-11T17:31:42.218Z,54.57
2022-08-11T17:34:28.767Z,54.42
2022-08-11T17:36:57.132Z,56.73
2022-08-11T17:39:29.498Z,57.91
2022-08-11T17:42:16.595Z,58.85
2022-08-11T17:45:03.727Z,58.08
2022-08-11T17:47:51.113Z,57.77
2022-08-11T17:50:18.952Z,57.52
2022-08-11T17:53:06.311Z,57.23
2022-08-11T17:55:53.903Z,55.04
2022-08-11T17:58:41.072Z,56.87
2022-08-11T18:01:11.046Z,58.17
2022-08-11T18:03:41.584Z,56.41
2022-08-11T18:06:12.562Z,57.67
2022-08-11T18:09:02.764Z,57.65
2022-08-11T18:12:06.810Z,57.84
2022-08-11T18:14:58.068Z,60.63
2022-08-11T18:17:43.516Z,62.81
2022-08-11T18:20:29.855Z,64.45
2022-08-11T18:23:17.031Z,64.15
2022-08-11T18:26:07.376Z,63.92
2022-08-11T18:29:03.779Z,65.14
2022-08-11T18:31:54.205Z,64.45
2022-08-11T18:34:47.226Z,65.26
2022-08-11T18:37:42.781Z,64.44
2022-08-11T18:40:31.054Z,66.63
2022-08-11T18:43:21.023Z,66.57
2022-08-11T18:46:11.433Z,66.96
2022-08-11T18:49:06.374Z,67.86
2022-08-11T18:51:57.714Z,67.63
2022-08-11T18:54:44.979Z,69.66
2022-08-11T18:57:32.333Z,69.62
2022-08-11T19:00:23.586Z,68.41
2022-08-11T19:03:09.544Z,68.54
2022-08-11T19:06:35.220Z,69.00
2022-08-11T19:09:07.634Z,69.44
2022-08-11T19:11:55.442Z,70.04
2022-08-11T19:14:48.351Z,69.87
2022-08-11T19:17:44.281Z,70.64
2022-08-11T19:20:42.074Z,71.01
2022-08-11T19:23:30.011Z,70.47
2022-08-11T19:26:16.965Z,70.85
2022-08-11T19:29:04.728Z,71.02
2022-08-11T19:31:51.115Z,70.09
2022-08-11T19:34:38.607Z,69.99
2022-08-11T19:37:25.983Z,71.92
2022-08-11T19:40:13.419Z,71.23
2022-08-11T19:43:00.600Z,71.33
2022-08-11T19:45:51.193Z,71.10
2022-08-11T19:48:40.094Z,70.91
2022-08-11T19:51:27.360Z,69.81
2022-08-11T19:54:13.787Z,70.75
2022-08-11T19:57:00.664Z,71.47
2022-08-11T19:59:47.049Z,71.51
2022-08-11T20:02:33.367Z,71.90
2022-08-11T20:05:19.760Z,71.74
2022-08-11T20:08:06.936Z,71.99
2022-08-11T20:10:54.468Z,74.61
2022-08-11T20:13:42.622Z,73.79
2022-08-11T20:16:31.563Z,72.85
2022-08-11T20:19:18.576Z,72.34
2022-08-11T20:22:08.928Z,72.13
2022-08-11T20:24:56.832Z,71.93
2022-08-11T20:27:44.122Z,72.34
2022-08-11T20:30:30.202Z,72.96
2022-08-11T20:33:17.061Z,73.49
2022-08-11T20:36:04.104Z,73.44
2022-08-11T20:38:55.019Z,75.15
2022-08-11T20:41:58.097Z,74.16
2022-08-11T20:44:46.025Z,73.51
2022-08-11T20:47:56.168Z,74.73
2022-08-11T20:50:41.866Z,73.72
2022-08-11T20:53:35.958Z,74.65
2022-08-11T20:56:28.309Z,75.41
2022-08-11T21:02:27.541Z,75.65
2022-08-11T21:05:15.829Z,74.37
2022-08-11T21:08:11.687Z,74.39
2022-08-11T21:10:59.790Z,74.10
2022-08-11T21:13:51.421Z,74.61
2022-08-11T21:16:41.673Z,74.16
2022-08-11T21:20:00.093Z,75.23
2022-08-11T21:22:59.064Z,75.45
2022-08-11T21:25:59.782Z,75.03
2022-08-11T21:28:47.279Z,76.52
2022-08-11T21:31:34.694Z,77.10
2022-08-11T21:34:21.408Z,75.50
2022-08-11T21:37:09.042Z,75.88
2022-08-11T21:39:55.649Z,76.13
2022-08-11T21:42:42.958Z,74.97
2022-08-11T21:45:29.159Z,74.55
2022-08-11T21:48:15.828Z,74.86
2022-08-11T21:51:01.935Z,75.68
2022-08-11T21:53:48.509Z,76.54
2022-08-11T21:56:34.961Z,75.68
2022-08-11T21:59:22.695Z,74.55
2022-08-11T22:02:12.539Z,74.46
2022-08-11T22:05:00.289Z,75.92
2022-08-11T22:07:46.892Z,75.12
2022-08-11T22:10:42.264Z,76.20
2022-08-11T22:13:32.071Z,76.00
2022-08-11T22:16:19.630Z,75.82
2022-08-11T22:19:05.941Z,76.22
2022-08-11T22:22:02.366Z,75.97
2022-08-11T22:24:51.249Z,75.46
2022-08-11T22:27:37.977Z,75.82
2022-08-11T22:30:27.882Z,77.22
2022-08-11T22:33:16.343Z,78.05
2022-08-11T22:36:06.903Z,78.16
2022-08-11T22:38:53.983Z,77.35
2022-08-11T22:41:41.293Z,76.11
2022-08-11T22:44:28.274Z,78.02
2022-08-11T22:47:21.932Z,78.16
2022-08-11T22:50:11.578Z,79.10
2022-08-11T22:52:57.489Z,80.07
2022-08-11T22:55:44.811Z,79.91
2022-08-11T22:58:30.995Z,79.11
2022-08-11T23:01:17.370Z,78.72
2022-08-11T23:04:05.363Z,79.75
2022-08-11T23:06:53.162Z,79.98
2022-08-11T23:09:39.370Z,79.84
2022-08-11T23:12:26.086Z,78.95
2022-08-11T23:15:12.508Z,78.50
2022-08-11T23:17:58.728Z,80.41
2022-08-11T23:20:47.069Z,81.17
2022-08-11T23:23:36.480Z,80.60
2022-08-11T23:26:22.990Z,79.53
2022-08-11T23:29:09.595Z,81.34
2022-08-11T23:31:56.421Z,79.62
2022-08-11T23:35:37.082Z,78.87
2022-08-11T23:37:54.087Z,80.03
2022-08-11T23:40:40.265Z,79.30
2022-08-11T23:43:26.481Z,78.82
2022-08-11T23:46:12.845Z,78.84
2022-08-11T23:48:59.579Z,78.58
2022-08-11T23:51:46.176Z,78.62
2022-08-11T23:54:37.168Z,79.39
2022-08-11T23:57:23.753Z,80.40
